sensor_id;sensor_type;location;lat;lon;timestamp;pressure;altitude;pressure_sealevel;temperature;humidity
31337;BME280;22846;42.654;23.314;2023-03-20T00:00:04;94813.06;;;22.95;45.82
31337;BME280;22846;42.654;23.314;2023-03-20T00:02:32;94805.69;;;22.96;46.00
31337;BME280;22846;42.654;23.314;2023-03-20T00:04:57;94803.41;;;22.94;45.96
31337;BME280;22846;42.654;23.314;2023-03-20T00:07:23;94792.53;;;22.91;45.81
31337;BME280;22846;42.654;23.314;2023-03-20T00:09:48;94800.66;;;22.94;46.19
31337;BME280;22846;42.654;23.314;2023-03-20T00:12:17;94797.25;;;22.90;46.34
31337;BME280;22846;42.654;23.314;2023-03-20T00:14:46;94803.41;;;22.94;46.10
31337;BME280;22846;42.654;23.314;2023-03-20T00:17:14;94801.06;;;22.93;46.13
31337;BME280;22846;42.654;23.314;2023-03-20T00:19:44;94803.41;;;22.94;46.41
31337;BME280;22846;42.654;23.314;2023-03-20T00:22:10;94787.88;;;22.91;46.61
31337;BME280;22846;42.654;23.314;2023-03-20T00:24:36;94777.97;;;22.81;46.34
31337;BME280;22846;42.654;23.314;2023-03-20T00:27:02;94798.78;;;22.91;46.38
31337;BME280;22846;42.654;23.314;2023-03-20T00:29:30;94794.09;;;22.92;46.36
31337;BME280;22846;42.654;23.314;2023-03-20T00:31:57;94789.81;;;22.91;46.73
31337;BME280;22846;42.654;23.314;2023-03-20T00:34:25;94794.09;;;22.92;47.13
31337;BME280;22846;42.654;23.314;2023-03-20T00:36:52;94789.91;;;22.87;47.03
31337;BME280;22846;42.654;23.314;2023-03-20T00:39:18;94787.88;;;22.91;47.12
31337;BME280;22846;42.654;23.314;2023-03-20T00:41:50;94785.25;;;22.88;47.00
31337;BME280;22846;42.654;23.314;2023-03-20T00:46:44;94780.13;;;22.90;47.51
31337;BME280;22846;42.654;23.314;2023-03-20T00:49:10;94778.25;;;22.87;47.54
31337;BME280;22846;42.654;23.314;2023-03-20T00:51:36;94785.59;;;22.90;47.68
31337;BME280;22846;42.654;23.314;2023-03-20T00:54:11;94791.03;;;22.90;47.26
31337;BME280;22846;42.654;23.314;2023-03-20T00:56:42;94790.25;;;22.89;47.62
31337;BME280;22846;42.654;23.314;2023-03-20T00:59:15;94784.81;;;22.89;47.56
31337;BME280;22846;42.654;23.314;2023-03-20T01:01:43;94779.34;;;22.89;47.51
31337;BME280;22846;42.654;23.314;2023-03-20T01:04:14;94777.81;;;22.88;47.60
31337;BME280;22846;42.654;23.314;2023-03-20T01:06:41;94773.16;;;22.89;47.16
31337;BME280;22846;42.654;23.314;2023-03-20T01:09:06;94770.81;;;22.87;47.28
31337;BME280;22846;42.654;23.314;2023-03-20T01:11:32;94771.19;;;22.89;47.21
31337;BME280;22846;42.654;23.314;2023-03-20T01:13:58;94766.56;;;22.86;47.45
31337;BME280;22846;42.654;23.314;2023-03-20T01:16:25;94764.19;;;22.88;47.71
31337;BME280;22846;42.654;23.314;2023-03-20T01:18:51;94748.34;;;22.83;47.84
31337;BME280;22846;42.654;23.314;2023-03-20T01:21:18;94758.38;;;22.86;47.71
31337;BME280;22846;42.654;23.314;2023-03-20T01:23:43;94739.22;;;22.74;47.54
31337;BME280;22846;42.654;23.314;2023-03-20T01:26:21;94753.81;;;22.83;47.33
31337;BME280;22846;42.654;23.314;2023-03-20T01:28:50;94748.34;;;22.83;47.52
31337;BME280;22846;42.654;23.314;2023-03-20T01:31:16;94756.88;;;22.85;47.37
31337;BME280;22846;42.654;23.314;2023-03-20T01:33:42;94758.06;;;22.84;47.59
31337;BME280;22846;42.654;23.314;2023-03-20T01:36:09;94748.75;;;22.82;47.28
31337;BME280;22846;42.654;23.314;2023-03-20T01:38:36;94761.53;;;22.85;47.64
31337;BME280;22846;42.654;23.314;2023-03-20T01:41:07;94756.63;;;22.80;47.72
31337;BME280;22846;42.654;23.314;2023-03-20T01:43:34;94760.09;;;22.80;47.44
31337;BME280;22846;42.654;23.314;2023-03-20T01:46:22;94771.69;;;22.84;47.74
31337;BME280;22846;42.654;23.314;2023-03-20T01:51:14;94762.47;;;22.78;47.64
31337;BME280;22846;42.654;23.314;2023-03-20T01:53:40;94765.09;;;22.82;47.55
31337;BME280;22846;42.654;23.314;2023-03-20T01:56:06;94769.81;;;22.81;47.82
31337;BME280;22846;42.654;23.314;2023-03-20T01:58:35;94773.63;;;22.84;47.71
31337;BME280;22846;42.654;23.314;2023-03-20T02:01:04;94753.09;;;22.79;48.09
31337;BME280;22846;42.654;23.314;2023-03-20T02:03:30;94780.38;;;22.95;47.64
31337;BME280;22846;42.654;23.314;2023-03-20T02:05:56;94776.38;;;23.00;46.84
31337;BME280;22846;42.654;23.314;2023-03-20T02:08:30;94768.97;;;23.00;46.87
31337;BME280;22846;42.654;23.314;2023-03-20T02:10:58;94763.09;;;23.02;46.94
31337;BME280;22846;42.654;23.314;2023-03-20T02:13:29;94755.72;;;23.02;46.71
31337;BME280;22846;42.654;23.314;2023-03-20T02:16:06;94754.91;;;23.02;47.42
31337;BME280;22846;42.654;23.314;2023-03-20T02:18:33;94751.44;;;23.01;47.00
31337;BME280;22846;42.654;23.314;2023-03-20T02:43:19;94763.78;;;23.69;46.77
31337;BME280;22846;42.654;23.314;2023-03-20T03:01:30;94751.25;;;23.88;47.14
31337;BME280;22846;42.654;23.314;2023-03-20T03:04:03;94754.28;;;23.90;47.35
31337;BME280;22846;42.654;23.314;2023-03-20T03:06:31;94755.31;;;23.95;47.25
31337;BME280;22846;42.654;23.314;2023-03-20T03:09:20;94755.66;;;23.97;47.08
31337;BME280;22846;42.654;23.314;2023-03-20T03:11:51;94750.09;;;24.01;46.98
31337;BME280;22846;42.654;23.314;2023-03-20T03:14:29;94750.00;;;24.04;46.99
31337;BME280;22846;42.654;23.314;2023-03-20T03:16:57;94747.94;;;24.08;47.14
31337;BME280;22846;42.654;23.314;2023-03-20T03:19:26;94745.53;;;24.10;46.71
31337;BME280;22846;42.654;23.314;2023-03-20T03:21:53;94746.63;;;24.13;46.95
31337;BME280;22846;42.654;23.314;2023-03-20T03:24:34;94739.97;;;24.14;46.64
31337;BME280;22846;42.654;23.314;2023-03-20T03:27:02;94742.59;;;24.17;46.70
31337;BME280;22846;42.654;23.314;2023-03-20T03:29:36;94756.59;;;24.19;46.97
31337;BME280;22846;42.654;23.314;2023-03-20T03:32:05;94750.69;;;24.21;47.15
31337;BME280;22846;42.654;23.314;2023-03-20T03:34:33;94757.28;;;24.23;46.86
31337;BME280;22846;42.654;23.314;2023-03-20T03:37:06;94753.31;;;24.24;46.57
31337;BME280;22846;42.654;23.314;2023-03-20T03:39:55;94756.41;;;24.26;46.98
31337;BME280;22846;42.654;23.314;2023-03-20T03:43:02;94752.47;;;24.27;46.58
31337;BME280;22846;42.654;23.314;2023-03-20T03:47:55;94749.63;;;24.31;46.75
31337;BME280;22846;42.654;23.314;2023-03-20T03:50:28;94751.16;;;24.32;46.61
31337;BME280;22846;42.654;23.314;2023-03-20T03:52:57;94749.53;;;24.34;46.94
31337;BME280;22846;42.654;23.314;2023-03-20T03:55:28;94751.06;;;24.35;47.02
31337;BME280;22846;42.654;23.314;2023-03-20T03:58:47;94741.78;;;24.33;46.91
31337;BME280;22846;42.654;23.314;2023-03-20T04:00:48;94737.31;;;24.39;46.60
31337;BME280;22846;42.654;23.314;2023-03-20T04:03:16;94739.72;;;24.37;46.44
31337;BME280;22846;42.654;23.314;2023-03-20T04:05:45;94737.41;;;24.35;46.77
31337;BME280;22846;42.654;23.314;2023-03-20T04:08:10;94745.19;;;24.37;46.78
31337;BME280;22846;42.654;23.314;2023-03-20T04:10:36;94742.94;;;24.48;46.83
31337;BME280;22846;42.654;23.314;2023-03-20T04:13:02;94736.84;;;24.56;46.22
31337;BME280;22846;42.654;23.314;2023-03-20T04:15:28;94720.84;;;24.55;46.25
31337;BME280;22846;42.654;23.314;2023-03-20T04:17:55;94724.59;;;24.61;46.22
31337;BME280;22846;42.654;23.314;2023-03-20T04:20:20;94723.28;;;24.65;45.95
31337;BME280;22846;42.654;23.314;2023-03-20T04:22:45;94721.97;;;24.70;46.02
31337;BME280;22846;42.654;23.314;2023-03-20T04:25:22;94731.59;;;24.74;45.88
31337;BME280;22846;42.654;23.314;2023-03-20T04:27:48;94729.84;;;24.80;45.93
31337;BME280;22846;42.654;23.314;2023-03-20T04:30:14;94723.63;;;24.79;45.53
31337;BME280;22846;42.654;23.314;2023-03-20T04:32:40;94725.38;;;24.86;45.68
31337;BME280;22846;42.654;23.314;2023-03-20T04:35:06;94720.69;;;24.86;45.90
31337;BME280;22846;42.654;23.314;2023-03-20T04:37:33;94727.44;;;24.94;45.49
31337;BME280;22846;42.654;23.314;2023-03-20T04:39:58;94727.34;;;24.98;45.78
31337;BME280;22846;42.654;23.314;2023-03-20T04:42:24;94730.72;;;25.02;45.45
31337;BME280;22846;42.654;23.314;2023-03-20T04:44:49;94724.81;;;25.03;45.33
31337;BME280;22846;42.654;23.314;2023-03-20T04:47:14;94736.41;;;25.07;45.12
31337;BME280;22846;42.654;23.314;2023-03-20T04:49:40;94747.25;;;25.11;45.01
31337;BME280;22846;42.654;23.314;2023-03-20T04:52:06;94751.53;;;25.12;45.20
31337;BME280;22846;42.654;23.314;2023-03-20T04:54:31;94761.59;;;25.15;44.94
31337;BME280;22846;42.654;23.314;2023-03-20T04:56:57;94762.34;;;25.15;45.48
31337;BME280;22846;42.654;23.314;2023-03-20T04:59:22;94767.94;;;25.12;45.75
31337;BME280;22846;42.654;23.314;2023-03-20T05:01:49;94773.94;;;25.07;45.41
31337;BME280;22846;42.654;23.314;2023-03-20T05:04:14;94766.06;;;24.96;45.48
31337;BME280;22846;42.654;23.314;2023-03-20T05:06:40;94765.84;;;24.91;45.69
31337;BME280;22846;42.654;23.314;2023-03-20T05:09:05;94767.69;;;24.81;47.45
31337;BME280;22846;42.654;23.314;2023-03-20T05:11:31;94764.50;;;24.71;46.89
31337;BME280;22846;42.654;23.314;2023-03-20T05:13:56;94768.66;;;24.63;46.32
31337;BME280;22846;42.654;23.314;2023-03-20T05:16:22;94762.41;;;24.50;44.81
31337;BME280;22846;42.654;23.314;2023-03-20T05:18:47;94760.69;;;24.40;43.74
31337;BME280;22846;42.654;23.314;2023-03-20T05:21:13;94767.81;;;24.37;40.41
31337;BME280;22846;42.654;23.314;2023-03-20T05:23:38;94775.09;;;24.28;42.77
31337;BME280;22846;42.654;23.314;2023-03-20T05:26:04;94772.13;;;24.22;44.52
31337;BME280;22846;42.654;23.314;2023-03-20T05:28:30;94776.25;;;24.14;44.94
31337;BME280;22846;42.654;23.314;2023-03-20T05:30:55;94771.84;;;24.04;45.97
31337;BME280;22846;42.654;23.314;2023-03-20T05:33:21;94781.56;;;24.05;46.02
31337;BME280;22846;42.654;23.314;2023-03-20T05:35:46;94766.38;;;24.04;46.03
31337;BME280;22846;42.654;23.314;2023-03-20T05:38:12;94776.97;;;24.02;46.33
31337;BME280;22846;42.654;23.314;2023-03-20T05:40:37;94778.16;;;24.01;47.04
31337;BME280;22846;42.654;23.314;2023-03-20T05:43:03;94786.34;;;24.01;46.46
31337;BME280;22846;42.654;23.314;2023-03-20T05:45:28;94779.78;;;23.99;43.75
31337;BME280;22846;42.654;23.314;2023-03-20T05:47:54;94774.84;;;23.94;43.43
31337;BME280;22846;42.654;23.314;2023-03-20T05:50:19;94776.06;;;23.93;45.15
31337;BME280;22846;42.654;23.314;2023-03-20T05:52:48;94781.09;;;23.94;45.32
31337;BME280;22846;42.654;23.314;2023-03-20T05:55:14;94786.09;;;23.96;45.23
31337;BME280;22846;42.654;23.314;2023-03-20T05:57:39;94777.66;;;23.91;45.47
31337;BME280;22846;42.654;23.314;2023-03-20T06:00:06;94779.22;;;23.92;45.86
31337;BME280;22846;42.654;23.314;2023-03-20T06:02:33;94788.19;;;23.92;45.33
31337;BME280;22846;42.654;23.314;2023-03-20T06:04:58;94780.09;;;23.89;43.79
31337;BME280;22846;42.654;23.314;2023-03-20T06:07:24;94783.91;;;23.91;44.37
31337;BME280;22846;42.654;23.314;2023-03-20T06:09:49;94775.38;;;23.89;44.90
31337;BME280;22846;42.654;23.314;2023-03-20T06:12:16;94758.84;;;23.80;46.02
31337;BME280;22846;42.654;23.314;2023-03-20T06:14:41;94783.13;;;23.91;46.61
31337;BME280;22846;42.654;23.314;2023-03-20T06:17:07;94782.47;;;23.87;40.64
31337;BME280;22846;42.654;23.314;2023-03-20T06:19:32;94782.56;;;23.83;37.07
31337;BME280;22846;42.654;23.314;2023-03-20T06:21:57;94774.56;;;23.76;36.25
31337;BME280;22846;42.654;23.314;2023-03-20T06:24:23;94789.41;;;23.75;35.07
31337;BME280;22846;42.654;23.314;2023-03-20T06:26:48;94795.34;;;23.70;43.13
31337;BME280;22846;42.654;23.314;2023-03-20T06:29:13;94783.75;;;23.66;45.10
31337;BME280;22846;42.654;23.314;2023-03-20T06:31:39;94792.69;;;23.67;46.59
31337;BME280;22846;42.654;23.314;2023-03-20T06:34:05;94777.88;;;23.68;46.84
31337;BME280;22846;42.654;23.314;2023-03-20T06:36:30;94780.16;;;23.69;47.53
31337;BME280;22846;42.654;23.314;2023-03-20T06:38:56;94792.19;;;23.72;47.38
31337;BME280;22846;42.654;23.314;2023-03-20T06:41:21;94797.97;;;23.74;47.69
31337;BME280;22846;42.654;23.314;2023-03-20T06:43:47;94793.69;;;23.73;47.59
31337;BME280;22846;42.654;23.314;2023-03-20T06:46:14;94793.31;;;23.74;47.50
31337;BME280;22846;42.654;23.314;2023-03-20T06:48:39;94783.22;;;23.71;48.25
31337;BME280;22846;42.654;23.314;2023-03-20T06:51:07;94778.88;;;23.74;48.31
31337;BME280;22846;42.654;23.314;2023-03-20T06:53:33;94784.59;;;23.79;48.55
31337;BME280;22846;42.654;23.314;2023-03-20T06:55:59;94789.31;;;23.79;48.06
31337;BME280;22846;42.654;23.314;2023-03-20T06:58:24;94786.50;;;23.82;48.35
31337;BME280;22846;42.654;23.314;2023-03-20T07:00:50;94776.41;;;23.79;48.12
31337;BME280;22846;42.654;23.314;2023-03-20T07:03:16;94783.31;;;23.84;47.49
31337;BME280;22846;42.654;23.314;2023-03-20T07:05:42;94776.66;;;23.85;47.29
31337;BME280;22846;42.654;23.314;2023-03-20T07:08:07;94775.91;;;23.84;47.25
31337;BME280;22846;42.654;23.314;2023-03-20T07:10:33;94770.78;;;23.86;48.13
31337;BME280;22846;42.654;23.314;2023-03-20T07:12:59;94778.22;;;23.86;48.39
31337;BME280;22846;42.654;23.314;2023-03-20T07:15:25;94773.94;;;23.85;48.84
31337;BME280;22846;42.654;23.314;2023-03-20T07:17:51;94761.69;;;23.77;48.91
31337;BME280;22846;42.654;23.314;2023-03-20T07:20:17;94777.09;;;23.83;48.75
31337;BME280;22846;42.654;23.314;2023-03-20T07:22:42;94773.94;;;23.85;48.78
31337;BME280;22846;42.654;23.314;2023-03-20T07:25:09;94758.00;;;23.83;48.51
31337;BME280;22846;42.654;23.314;2023-03-20T07:27:35;94766.84;;;23.87;48.54
31337;BME280;22846;42.654;23.314;2023-03-20T07:30:01;94767.28;;;23.86;48.45
31337;BME280;22846;42.654;23.314;2023-03-20T07:32:26;94771.56;;;23.87;48.37
31337;BME280;22846;42.654;23.314;2023-03-20T07:34:52;94773.84;;;23.88;48.37
31337;BME280;22846;42.654;23.314;2023-03-20T07:37:18;94774.69;;;23.85;48.51
31337;BME280;22846;42.654;23.314;2023-03-20T07:39:43;94767.63;;;23.88;48.58
31337;BME280;22846;42.654;23.314;2023-03-20T07:42:09;94780.84;;;23.89;48.44
31337;BME280;22846;42.654;23.314;2023-03-20T07:44:34;94766.50;;;23.85;48.64
31337;BME280;22846;42.654;23.314;2023-03-20T07:47:00;94771.56;;;23.87;48.35
31337;BME280;22846;42.654;23.314;2023-03-20T07:49:25;94772.31;;;23.87;48.56
31337;BME280;22846;42.654;23.314;2023-03-20T07:51:51;94780.84;;;23.89;48.44
31337;BME280;22846;42.654;23.314;2023-03-20T07:54:19;94772.66;;;23.89;48.48
31337;BME280;22846;42.654;23.314;2023-03-20T07:56:44;94758.09;;;23.80;48.22
31337;BME280;22846;42.654;23.314;2023-03-20T07:59:11;94776.13;;;23.90;48.44
31337;BME280;22846;42.654;23.314;2023-03-20T08:01:36;94771.47;;;23.90;48.69
31337;BME280;22846;42.654;23.314;2023-03-20T08:04:03;94774.19;;;23.90;48.76
31337;BME280;22846;42.654;23.314;2023-03-20T08:06:29;94776.91;;;23.90;48.34
31337;BME280;22846;42.654;23.314;2023-03-20T08:08:56;94771.00;;;23.92;48.41
31337;BME280;22846;42.654;23.314;2023-03-20T08:11:21;94773.75;;;23.92;48.79
31337;BME280;22846;42.654;23.314;2023-03-20T08:13:47;94769.06;;;23.92;48.77
31337;BME280;22846;42.654;23.314;2023-03-20T08:16:12;94769.06;;;23.92;48.37
31337;BME280;22846;42.654;23.314;2023-03-20T08:18:38;94770.59;;;23.93;48.28
31337;BME280;22846;42.654;23.314;2023-03-20T08:21:03;94767.09;;;23.92;48.56
31337;BME280;22846;42.654;23.314;2023-03-20T08:23:29;94760.28;;;23.85;48.64
31337;BME280;22846;42.654;23.314;2023-03-20T08:25:54;94753.75;;;23.82;48.67
31337;BME280;22846;42.654;23.314;2023-03-20T08:28:21;94774.44;;;23.95;48.30
31337;BME280;22846;42.654;23.314;2023-03-20T08:30:47;94779.88;;;23.95;48.64
31337;BME280;22846;42.654;23.314;2023-03-20T08:33:14;94773.66;;;23.95;48.27
31337;BME280;22846;42.654;23.314;2023-03-20T08:35:40;94770.91;;;23.95;48.39
31337;BME280;22846;42.654;23.314;2023-03-20T08:38:14;94772.56;;;23.92;48.11
31337;BME280;22846;42.654;23.314;2023-03-20T08:40:40;94782.63;;;23.95;48.31
31337;BME280;22846;42.654;23.314;2023-03-20T08:43:06;94776.81;;;23.93;48.07
31337;BME280;22846;42.654;23.314;2023-03-20T08:45:31;94774.44;;;23.95;48.22
31337;BME280;22846;42.654;23.314;2023-03-20T08:47:57;94766.59;;;23.97;48.47
31337;BME280;22846;42.654;23.314;2023-03-20T08:50:22;94766.25;;;23.95;48.07
31337;BME280;22846;42.654;23.314;2023-03-20T08:52:47;94764.28;;;23.96;48.53
31337;BME280;22846;42.654;23.314;2023-03-20T08:55:14;94762.63;;;23.98;48.47
31337;BME280;22846;42.654;23.314;2023-03-20T08:57:42;94763.50;;;23.95;48.11
31337;BME280;22846;42.654;23.314;2023-03-20T09:00:10;94774.34;;;23.99;48.38
31337;BME280;22846;42.654;23.314;2023-03-20T09:02:37;94759.16;;;23.98;48.04
31337;BME280;22846;42.654;23.314;2023-03-20T09:05:03;94761.88;;;23.98;48.64
31337;BME280;22846;42.654;23.314;2023-03-20T09:07:28;94761.03;;;24.01;48.30
31337;BME280;22846;42.654;23.314;2023-03-20T09:09:54;94752.06;;;24.00;48.30
31337;BME280;22846;42.654;23.314;2023-03-20T09:12:19;94757.50;;;24.00;48.26
31337;BME280;22846;42.654;23.314;2023-03-20T09:14:45;94754.03;;;24.00;48.20
31337;BME280;22846;42.654;23.314;2023-03-20T09:17:11;94754.03;;;24.00;48.39
31337;BME280;22846;42.654;23.314;2023-03-20T09:19:37;94757.84;;;24.02;48.49
31337;BME280;22846;42.654;23.314;2023-03-20T09:22:04;94756.31;;;24.01;48.08
31337;BME280;22846;42.654;23.314;2023-03-20T09:24:30;94750.88;;;24.01;48.52
31337;BME280;22846;42.654;23.314;2023-03-20T09:26:57;94736.97;;;23.96;48.16
31337;BME280;22846;42.654;23.314;2023-03-20T09:29:23;94739.94;;;24.01;48.43
31337;BME280;22846;42.654;23.314;2023-03-20T09:31:48;94740.72;;;24.02;48.65
31337;BME280;22846;42.654;23.314;2023-03-20T09:34:14;94732.28;;;23.96;48.10
31337;BME280;22846;42.654;23.314;2023-03-20T09:36:39;94736.03;;;24.02;48.13
31337;BME280;22846;42.654;23.314;2023-03-20T09:39:05;94727.81;;;24.02;47.96
31337;BME280;22846;42.654;23.314;2023-03-20T09:41:30;94727.16;;;23.98;40.96
31337;BME280;22846;42.654;23.314;2023-03-20T09:44:32;94719.94;;;23.92;36.14
31337;BME280;22846;42.654;23.314;2023-03-20T09:55:13;94702.84;;;23.60;33.86
31337;BME280;22846;42.654;23.314;2023-03-20T09:57:42;94676.28;;;23.48;40.13
31337;BME280;22846;42.654;23.314;2023-03-20T10:00:12;94689.56;;;23.62;42.61
31337;BME280;22846;42.654;23.314;2023-03-20T10:08:20;94669.06;;;23.70;43.52
31337;BME280;22846;42.654;23.314;2023-03-20T10:10:51;94665.47;;;23.73;42.71
31337;BME280;22846;42.654;23.314;2023-03-20T10:13:41;94659.19;;;23.76;43.34
31337;BME280;22846;42.654;23.314;2023-03-20T10:19:17;94660.16;;;23.82;43.85
31337;BME280;22846;42.654;23.314;2023-03-20T10:21:46;94651.00;;;23.76;44.20
31337;BME280;22846;42.654;23.314;2023-03-20T10:24:17;94655.06;;;23.84;44.00
31337;BME280;22846;42.654;23.314;2023-03-20T10:26:49;94661.59;;;23.86;44.37
31337;BME280;22846;42.654;23.314;2023-03-20T10:42:29;94631.06;;;23.91;44.96
31337;BME280;22846;42.654;23.314;2023-03-20T10:45:00;94637.28;;;23.92;44.60
31337;BME280;22846;42.654;23.314;2023-03-20T10:47:27;94622.44;;;23.92;44.64
31337;BME280;22846;42.654;23.314;2023-03-20T10:49:57;94622.09;;;23.91;44.48
31337;BME280;22846;42.654;23.314;2023-03-20T10:52:27;94614.00;;;23.87;36.94
31337;BME280;22846;42.654;23.314;2023-03-20T10:55:19;94614.13;;;23.84;33.57
31337;BME280;22846;42.654;23.314;2023-03-20T10:58:22;94610.84;;;23.76;29.71
31337;BME280;22846;42.654;23.314;2023-03-20T11:00:48;94601.38;;;23.65;31.04
31337;BME280;22846;42.654;23.314;2023-03-20T11:03:22;94610.84;;;23.60;31.58
31337;BME280;22846;42.654;23.314;2023-03-20T11:08:23;94610.19;;;23.56;32.01
31337;BME280;22846;42.654;23.314;2023-03-20T11:10:59;94595.38;;;23.57;31.14
31337;BME280;22846;42.654;23.314;2023-03-20T11:13:34;94584.13;;;23.55;33.63
31337;BME280;22846;42.654;23.314;2023-03-20T11:18:40;94582.81;;;23.60;32.13
31337;BME280;22846;42.654;23.314;2023-03-20T11:21:09;94580.44;;;23.62;35.58
31337;BME280;22846;42.654;23.314;2023-03-20T11:23:38;94577.16;;;23.67;38.52
31337;BME280;22846;42.654;23.314;2023-03-20T11:26:05;94579.78;;;23.70;39.18
31337;BME280;22846;42.654;23.314;2023-03-20T11:33:32;94552.75;;;23.76;40.17
31337;BME280;22846;42.654;23.314;2023-03-20T11:36:00;94550.69;;;23.80;39.48
31337;BME280;22846;42.654;23.314;2023-03-20T11:38:29;94549.06;;;23.82;41.04
31337;BME280;22846;42.654;23.314;2023-03-20T11:40:56;94550.16;;;23.85;41.01
31337;BME280;22846;42.654;23.314;2023-03-20T11:43:23;94542.72;;;23.85;40.73
31337;BME280;22846;42.654;23.314;2023-03-20T11:45:57;94528.75;;;23.83;40.23
31337;BME280;22846;42.654;23.314;2023-03-20T11:48:25;94529.00;;;23.89;31.93
31337;BME280;22846;42.654;23.314;2023-03-20T11:51:14;94531.72;;;23.89;32.43
31337;BME280;22846;42.654;23.314;2023-03-20T11:53:59;94516.53;;;23.88;31.13
31337;BME280;22846;42.654;23.314;2023-03-20T11:56:30;94514.13;;;23.90;34.13
31337;BME280;22846;42.654;23.314;2023-03-20T12:01:25;94499.59;;;23.92;37.83
31337;BME280;22846;42.654;23.314;2023-03-20T12:04:00;94508.47;;;23.96;37.80
31337;BME280;22846;42.654;23.314;2023-03-20T12:06:36;94499.59;;;23.92;37.81
31337;BME280;22846;42.654;23.314;2023-03-20T12:09:11;94500.56;;;23.98;38.41
31337;BME280;22846;42.654;23.314;2023-03-20T12:14:29;94499.72;;;24.01;39.30
31337;BME280;22846;42.654;23.314;2023-03-20T12:19:46;94487.94;;;24.04;39.00
31337;BME280;22846;42.654;23.314;2023-03-20T12:25:23;94480.81;;;24.07;39.69
31337;BME280;22846;42.654;23.314;2023-03-20T12:33:43;94475.69;;;24.09;40.00
31337;BME280;22846;42.654;23.314;2023-03-20T12:36:20;94484.19;;;24.11;40.49
31337;BME280;22846;42.654;23.314;2023-03-20T12:38:49;94466.72;;;24.08;39.91
31337;BME280;22846;42.654;23.314;2023-03-20T12:41:23;94450.59;;;24.01;39.03
31337;BME280;22846;42.654;23.314;2023-03-20T12:58:27;94441.25;;;24.24;40.26
31337;BME280;22846;42.654;23.314;2023-03-20T13:14:26;94418.38;;;24.43;36.56
31337;BME280;22846;42.654;23.314;2023-03-20T13:22:53;94410.31;;;24.39;38.08
31337;BME280;22846;42.654;23.314;2023-03-20T13:25:41;94410.31;;;24.39;38.68
31337;BME280;22846;42.654;23.314;2023-03-20T13:30:58;94403.19;;;24.42;38.93
31337;BME280;22846;42.654;23.314;2023-03-20T13:39:30;94393.03;;;24.42;39.61
31337;BME280;22846;42.654;23.314;2023-03-20T13:41:59;94386.16;;;24.38;40.08
31337;BME280;22846;42.654;23.314;2023-03-20T13:44:27;94390.66;;;24.44;39.99
31337;BME280;22846;42.654;23.314;2023-03-20T13:47:01;94389.13;;;24.43;40.09
31337;BME280;22846;42.654;23.314;2023-03-20T13:49:46;94377.53;;;24.39;40.63
31337;BME280;22846;42.654;23.314;2023-03-20T13:52:45;94381.69;;;24.44;40.77
31337;BME280;22846;42.654;23.314;2023-03-20T13:55:22;94383.28;;;24.41;40.96
31337;BME280;22846;42.654;23.314;2023-03-20T14:04:28;94372.72;;;24.43;41.26
31337;BME280;22846;42.654;23.314;2023-03-20T14:06:56;94361.44;;;24.41;41.52
31337;BME280;22846;42.654;23.314;2023-03-20T14:09:34;94362.34;;;24.38;41.25
31337;BME280;22846;42.654;23.314;2023-03-20T14:12:06;94351.75;;;24.40;41.48
31337;BME280;22846;42.654;23.314;2023-03-20T14:14:47;94357.13;;;24.44;41.43
31337;BME280;22846;42.654;23.314;2023-03-20T14:17:20;94357.13;;;24.44;41.88
31337;BME280;22846;42.654;23.314;2023-03-20T14:19:48;94353.59;;;24.43;41.99
31337;BME280;22846;42.654;23.314;2023-03-20T14:22:27;94346.50;;;24.46;42.11
31337;BME280;22846;42.654;23.314;2023-03-20T14:24:59;94347.28;;;24.46;41.78
31337;BME280;22846;42.654;23.314;2023-03-20T14:27:29;94346.06;;;24.47;42.23
31337;BME280;22846;42.654;23.314;2023-03-20T14:29:55;94348.03;;;24.47;42.13
31337;BME280;22846;42.654;23.314;2023-03-20T14:32:23;94341.81;;;24.46;41.96
31337;BME280;22846;42.654;23.314;2023-03-20T14:40:21;94336.03;;;24.44;42.53
31337;BME280;22846;42.654;23.314;2023-03-20T14:43:06;94334.81;;;24.45;42.42
31337;BME280;22846;42.654;23.314;2023-03-20T14:45:57;94336.78;;;24.45;42.65
31337;BME280;22846;42.654;23.314;2023-03-20T14:48:32;94337.53;;;24.45;42.72
31337;BME280;22846;42.654;23.314;2023-03-20T14:53:26;94332.09;;;24.45;42.35
31337;BME280;22846;42.654;23.314;2023-03-20T14:56:12;94343.47;;;24.44;42.73
31337;BME280;22846;42.654;23.314;2023-03-20T15:03:58;94328.06;;;24.37;42.44
31337;BME280;22846;42.654;23.314;2023-03-20T15:06:27;94327.41;;;24.33;42.74
31337;BME280;22846;42.654;23.314;2023-03-20T15:08:59;94329.38;;;24.33;42.94
31337;BME280;22846;42.654;23.314;2023-03-20T15:11:28;94306.81;;;24.20;42.98
31337;BME280;22846;42.654;23.314;2023-03-20T15:13:57;94318.84;;;24.22;42.78
31337;BME280;22846;42.654;23.314;2023-03-20T15:16:34;94327.66;;;24.26;43.08
31337;BME280;22846;42.654;23.314;2023-03-20T15:19:00;94324.16;;;24.26;42.97
31337;BME280;22846;42.654;23.314;2023-03-20T15:21:37;94327.31;;;24.24;43.17
31337;BME280;22846;42.654;23.314;2023-03-20T15:24:05;94326.13;;;24.25;43.04
31337;BME280;22846;42.654;23.314;2023-03-20T15:26:33;94324.59;;;24.24;43.23
31337;BME280;22846;42.654;23.314;2023-03-20T15:29:05;94308.25;;;24.12;43.50
31337;BME280;22846;42.654;23.314;2023-03-20T15:31:32;94322.66;;;24.25;43.56
31337;BME280;22846;42.654;23.314;2023-03-20T15:34:00;94333.69;;;24.21;43.61
31337;BME280;22846;42.654;23.314;2023-03-20T15:36:30;94323.66;;;24.18;43.25
31337;BME280;22846;42.654;23.314;2023-03-20T15:39:25;94330.31;;;24.17;43.83
31337;BME280;22846;42.654;23.314;2023-03-20T15:41:55;94325.75;;;24.14;43.44
31337;BME280;22846;42.654;23.314;2023-03-20T15:44:35;94324.97;;;24.14;43.50